Main page
METAR-TAF:

METAR-TAF

Airports :

Lar, Iran

Larestan International Airport

latitude: 27-40-26N, longitude: 054-22-53E, elevation: 792 m

Current weather observation

The report was made 33 minutes ago, at 20:00 UTC
Calm wind
Temperature 9°C
Humidity 87%
Pressure 1022 hPa
Visibility 10 km or more
no clouds below 1500 m and no cumulonimbus

METAR: OISL 182000Z 00000KT CAVOK 09/07 Q1022

Time: 00:03 (20:33 UTC)

Forecast

The report was made 3 hours and 3 minutes ago, at 17:30 UTC
Forecast valid from 18 at 18 UTC to 19 at 24 UTC
Wind 6 kt from the Southwest
Visibility: 4000 m
Scattered clouds at a height of 3000 ft
mist
Temporary
from 18 at 21 UTC to 19 at 03 UTC
Visibility: 1500 m
Broken clouds at a height of 2000 ft
mist
Becoming
from 19 at 04 UTC to 19 at 06 UTC
Visibility: 7000 m
Few clouds at a height of 3000 ft

TAF: OISL 181730Z 1818/1924 22003MPS 4000 BR SCT030 TEMPO 1821/1903 1500 BR BKN020 BECMG 1904/1906 7000 FEW030

Weather observations and forecasts of more than 4000 airports (METAR and TAF reports).

The available stations are represented by yellow and red dots on the map.

Hover mouse over dot to see the name of the station.

Then click to see weather observations and forecasts.

To change the map : click on the green buttons with a black cross to zoom in, on the green button with a dash to zoom out, or on the green arrows for adjacent maps.


METAR-TAF: